TimeMST,TemperatureF,Dew PointF,Humidity,Sea Level PressureIn,VisibilityMPH,Wind Direction,Wind SpeedMPH,Gust SpeedMPH,PrecipitationIn,Events,Conditions,WindDirDegrees,DateUTC
12:53 AM,12.0,8.1,84,30.45,10.0,SSE,5.8,-,N/A,,Clear,160,2013-11-24 07:53:00
1:53 AM,10.9,7.0,84,30.45,10.0,SE,3.5,-,N/A,,Clear,130,2013-11-24 08:53:00
2:53 AM,10.0,6.1,84,30.43,10.0,SE,3.5,-,N/A,,Clear,140,2013-11-24 09:53:00
3:53 AM,9.0,5.0,84,30.42,10.0,SE,8.1,-,N/A,,Clear,140,2013-11-24 10:53:00
4:53 AM,10.0,6.1,84,30.41,10.0,SE,9.2,-,N/A,,Clear,140,2013-11-24 11:53:00
5:53 AM,12.9,8.1,81,30.38,10.0,SSE,6.9,-,N/A,,Clear,160,2013-11-24 12:53:00
6:53 AM,15.1,10.9,84,30.37,10.0,South,10.4,-,N/A,,Clear,180,2013-11-24 13:53:00
7:53 AM,21.0,14.0,74,30.32,10.0,South,13.8,-,N/A,,Clear,170,2013-11-24 14:53:00
8:53 AM,26.1,17.1,69,30.27,10.0,South,11.5,-,N/A,,Clear,170,2013-11-24 15:53:00
9:53 AM,30.0,19.0,64,30.23,10.0,South,19.6,25.3,N/A,,Clear,190,2013-11-24 16:53:00
10:53 AM,30.0,19.9,66,30.22,10.0,South,20.7,28.8,N/A,,Clear,190,2013-11-24 17:53:00
11:53 AM,32.0,21.9,66,30.18,10.0,South,18.4,24.2,N/A,,Clear,190,2013-11-24 18:53:00
12:53 PM,33.1,24.1,70,30.13,10.0,South,20.7,26.5,N/A,,Clear,190,2013-11-24 19:53:00
1:53 PM,35.1,25.0,67,30.11,10.0,South,18.4,-,N/A,,Clear,190,2013-11-24 20:53:00
2:53 PM,35.1,25.0,67,30.09,10.0,SSW,16.1,-,N/A,,Clear,210,2013-11-24 21:53:00
3:53 PM,34.0,25.0,70,30.10,10.0,SSW,6.9,-,N/A,,Clear,210,2013-11-24 22:53:00
4:53 PM,26.1,23.0,88,30.11,10.0,SSW,5.8,-,N/A,,Clear,200,2013-11-24 23:53:00
5:53 PM,21.0,19.0,92,30.12,10.0,South,5.8,-,N/A,,Clear,170,2013-11-25 00:53:00
6:53 PM,23.0,19.9,88,30.11,9.0,Calm,Calm,-,N/A,,Clear,0,2013-11-25 01:53:00
7:43 PM,15.8,15.8,100,29.96,1.5,Calm,Calm,-,N/A,,Clear,0,2013-11-25 02:43:00
7:45 PM,15.8,14.0,93,29.97,1.0,Calm,Calm,-,N/A,,Clear,0,2013-11-25 02:45:00
7:53 PM,15.1,14.0,95,30.11,0.5,SSW,3.5,-,N/A,Fog,Light Freezing Fog,200,2013-11-25 02:53:00
8:01 PM,17.6,15.8,93,29.96,1.5,SW,3.5,-,N/A,,Clear,230,2013-11-25 03:01:00
8:03 PM,17.6,15.8,93,29.96,4.0,WSW,3.5,-,N/A,,Clear,240,2013-11-25 03:03:00
8:53 PM,14.0,10.9,88,30.11,9.0,West,4.6,-,N/A,,Clear,280,2013-11-25 03:53:00
9:53 PM,12.0,10.0,92,30.11,9.0,West,6.9,-,N/A,,Clear,270,2013-11-25 04:53:00
10:53 PM,12.9,10.0,88,30.12,10.0,WNW,6.9,-,N/A,,Clear,300,2013-11-25 05:53:00
11:53 PM,12.0,8.1,84,30.14,10.0,WNW,4.6,-,N/A,,Clear,290,2013-11-25 06:53:00